Bloomington, Texas
Current Conditions -  °F | °C
As of 8:15 AM on Sunday 25 Jan 2015 (Local Time) from KPKV Reporting Station
Clear Clear  
Wind Chill: 41°   Ceiling: Unl
Heat Index: 44°   Visibility: 10mi
Dew Point: 40°   Wind: 5mph
Humidity: 88%   Direction: 240°WSW
Pressure: 30.09"   Gusts: NA
Location:  28.65°N, 96.89°W
Report Text: KPKV 251415Z AUTO 24004KT 10SM CLR 06/05 A3009 RMK AO2 T00640046
Loading
Personal Weather Stations






























Interactive Weather Map New forecast layout! Learn more

10-Day Weather Forecast

Advertisements
Track Severe Weather on mobile